createdAt,value
2023-01-18T00:02:49.370Z,98388.38
2023-01-18T00:05:51.796Z,98396.00
2023-01-18T00:08:57.034Z,98392.50
2023-01-18T00:11:59.304Z,98391.50
2023-01-18T00:15:01.629Z,98390.13
2023-01-18T00:18:04.590Z,98399.66
2023-01-18T00:21:09.569Z,98395.84
2023-01-18T00:24:14.992Z,98398.16
2023-01-18T00:27:17.416Z,98397.50
2023-01-18T00:30:22.387Z,98396.16
2023-01-18T00:33:24.908Z,98419.25
2023-01-18T00:36:27.275Z,98415.16
2023-01-18T00:39:29.579Z,98416.53
2023-01-18T00:42:51.374Z,98411.31
2023-01-18T00:45:53.723Z,98409.78
2023-01-18T00:48:57.423Z,98399.50
2023-01-18T00:51:59.709Z,98410.41
2023-01-18T00:55:04.030Z,98415.59
2023-01-18T00:58:06.308Z,98416.56
2023-01-18T01:01:10.207Z,98409.72
2023-01-18T01:04:31.300Z,98421.19
2023-01-18T01:07:33.690Z,98402.63
2023-01-18T01:10:36.364Z,98425.75
2023-01-18T01:13:57.491Z,98427.94
2023-01-18T01:17:18.486Z,98441.44
2023-01-18T01:20:40.427Z,98426.84
2023-01-18T01:24:01.777Z,98433.94
2023-01-18T01:27:04.158Z,98432.63
2023-01-18T01:30:07.264Z,98431.00
2023-01-18T01:33:09.574Z,98429.94
2023-01-18T01:36:14.596Z,98427.63
2023-01-18T01:39:18.007Z,98417.38
2023-01-18T01:42:20.285Z,98414.63
2023-01-18T01:45:24.373Z,98414.25
2023-01-18T01:48:26.700Z,98410.50
2023-01-18T01:51:29.292Z,98426.78
2023-01-18T01:54:36.889Z,98419.47
2023-01-18T01:58:09.210Z,98421.69
2023-01-18T02:01:11.667Z,98415.81
2023-01-18T02:04:14.170Z,98419.63
2023-01-18T02:07:16.416Z,98433.22
2023-01-18T02:10:18.875Z,98402.22
2023-01-18T02:13:23.842Z,98391.94
2023-01-18T02:16:59.242Z,98388.94
2023-01-18T02:20:26.891Z,98397.38
2023-01-18T02:23:35.091Z,98395.44
2023-01-18T02:27:03.860Z,98416.66
2023-01-18T02:30:14.691Z,98400.03
2023-01-18T02:33:39.676Z,98402.78
2023-01-18T02:36:53.463Z,98400.47
2023-01-18T02:39:58.549Z,98389.16
2023-01-18T02:43:20.949Z,98387.97
2023-01-18T02:46:36.105Z,98376.47
2023-01-18T02:49:38.389Z,98385.50
2023-01-18T02:52:40.694Z,98394.91
2023-01-18T02:56:02.798Z,98388.84
2023-01-18T02:59:16.788Z,98403.50
2023-01-18T03:02:21.875Z,98408.88
2023-01-18T03:05:25.251Z,98410.38
2023-01-18T03:08:41.783Z,98399.59
2023-01-18T03:11:52.871Z,98398.69
2023-01-18T03:15:08.666Z,98408.00
2023-01-18T03:18:10.899Z,98401.47
2023-01-18T03:21:13.169Z,98390.66
2023-01-18T03:24:17.231Z,98395.63
2023-01-18T03:27:38.205Z,98391.81
2023-01-18T03:31:00.166Z,98390.03
2023-01-18T03:34:25.467Z,98396.81
2023-01-18T03:37:30.570Z,98385.09
2023-01-18T03:40:32.954Z,98380.59
2023-01-18T03:43:37.921Z,98364.47
2023-01-18T03:46:41.341Z,98371.47
2023-01-18T03:49:43.703Z,98373.22
2023-01-18T03:52:51.123Z,98365.88
2023-01-18T03:55:57.750Z,98374.22
2023-01-18T03:59:01.711Z,98395.94
2023-01-18T04:02:06.234Z,98387.38
2023-01-18T04:05:08.995Z,98398.38
2023-01-18T04:08:11.379Z,98395.56
2023-01-18T04:11:13.684Z,98394.38
2023-01-18T04:14:16.132Z,98386.69
2023-01-18T04:17:18.440Z,98400.34
2023-01-18T04:20:20.884Z,98406.91
2023-01-18T04:23:24.185Z,98413.25
2023-01-18T04:26:26.678Z,98407.75
2023-01-18T04:29:29.490Z,98418.72
2023-01-18T04:32:32.801Z,98409.09
2023-01-18T04:35:36.388Z,98415.25
2023-01-18T04:38:38.687Z,98413.63
2023-01-18T04:41:40.946Z,98401.78
2023-01-18T04:44:43.332Z,98411.13
2023-01-18T04:47:45.792Z,98399.84
2023-01-18T04:50:48.660Z,98395.41
2023-01-18T04:53:51.766Z,98394.91
2023-01-18T04:56:54.366Z,98382.69
2023-01-18T04:59:56.655Z,98388.72
2023-01-18T05:02:59.310Z,98377.81
2023-01-18T05:06:01.799Z,98379.06
2023-01-18T05:09:04.333Z,98387.53
2023-01-18T05:12:06.862Z,98380.34
2023-01-18T05:15:09.963Z,98378.69
2023-01-18T05:18:12.284Z,98367.06
2023-01-18T05:21:15.134Z,98363.66
2023-01-18T05:24:17.543Z,98361.81
2023-01-18T05:27:20.075Z,98373.88
2023-01-18T05:30:22.310Z,98380.56
2023-01-18T05:33:24.576Z,98375.19
2023-01-18T05:36:26.902Z,98382.47
2023-01-18T05:39:29.516Z,98387.22
2023-01-18T05:42:31.813Z,98377.31
2023-01-18T05:45:34.833Z,98365.53
2023-01-18T05:48:37.131Z,98369.84
2023-01-18T05:51:39.519Z,98367.75
2023-01-18T05:54:42.012Z,98366.97
2023-01-18T05:57:44.864Z,98369.94
2023-01-18T06:00:47.668Z,98365.59
2023-01-18T06:03:50.193Z,98361.75
2023-01-18T06:06:52.468Z,98367.06
2023-01-18T06:09:54.801Z,98365.53
2023-01-18T06:12:57.368Z,98354.34
2023-01-18T06:16:00.892Z,98343.63
2023-01-18T06:19:03.174Z,98341.22
2023-01-18T06:22:05.624Z,98329.28
2023-01-18T06:25:10.160Z,98336.69
2023-01-18T06:28:12.527Z,98332.25
2023-01-18T06:31:17.902Z,98329.94
2023-01-18T06:34:20.289Z,98320.66
2023-01-18T06:37:22.661Z,98334.25
2023-01-18T06:40:25.012Z,98336.78
2023-01-18T06:43:27.412Z,98339.97
2023-01-18T06:46:30.001Z,98338.59
2023-01-18T06:49:32.392Z,98325.19
2023-01-18T06:52:34.714Z,98334.31
2023-01-18T06:55:37.150Z,98340.22
2023-01-18T06:58:39.438Z,98354.34
2023-01-18T07:01:41.882Z,98348.91
2023-01-18T07:04:45.519Z,98347.91
2023-01-18T07:07:47.941Z,98363.22
2023-01-18T07:10:52.668Z,98371.09
2023-01-18T07:13:55.065Z,98331.06
2023-01-18T07:16:57.365Z,98355.13
2023-01-18T07:19:59.759Z,98350.88
2023-01-18T07:23:02.776Z,98362.97
2023-01-18T07:26:10.158Z,98369.97
2023-01-18T07:29:12.896Z,98364.34
2023-01-18T07:32:15.253Z,98353.69
2023-01-18T07:35:20.264Z,98325.25
2023-01-18T07:38:23.223Z,98336.59
2023-01-18T07:41:26.334Z,98332.22
2023-01-18T07:44:29.816Z,98326.75
2023-01-18T07:47:32.218Z,98304.44
2023-01-18T07:50:34.564Z,98324.78
2023-01-18T07:53:38.163Z,98331.28
2023-01-18T07:56:40.667Z,98320.28
2023-01-18T07:59:43.047Z,98330.28
2023-01-18T08:02:45.417Z,98331.88
2023-01-18T08:05:48.273Z,98330.63
2023-01-18T08:08:50.932Z,98336.03
2023-01-18T08:11:53.308Z,98332.75
2023-01-18T08:14:55.590Z,98335.78
2023-01-18T08:17:57.972Z,98336.38
2023-01-18T08:21:00.396Z,98337.19
2023-01-18T08:24:02.879Z,98334.72
2023-01-18T08:27:05.306Z,98353.63
2023-01-18T08:30:08.425Z,98361.44
2023-01-18T08:33:11.291Z,98371.94
2023-01-18T08:36:21.746Z,98360.66
2023-01-18T08:39:24.230Z,98370.72
2023-01-18T08:42:26.848Z,98362.94
2023-01-18T08:45:29.351Z,98364.88
2023-01-18T08:48:31.766Z,98361.06
2023-01-18T08:51:34.732Z,98363.47
2023-01-18T08:54:37.226Z,98371.25
2023-01-18T08:57:39.558Z,98361.03
2023-01-18T09:00:41.859Z,98363.72
2023-01-18T09:03:45.184Z,98363.19
2023-01-18T09:06:52.179Z,98355.66
2023-01-18T09:09:54.513Z,98348.16
2023-01-18T09:12:57.193Z,98357.81
2023-01-18T09:16:10.724Z,98356.50
2023-01-18T09:19:13.299Z,98354.13
2023-01-18T09:22:15.600Z,98351.13
2023-01-18T09:25:18.569Z,98358.94
2023-01-18T09:28:21.037Z,98354.63
2023-01-18T09:31:26.021Z,98356.81
2023-01-18T09:34:28.406Z,98339.00
2023-01-18T09:37:31.584Z,98347.63
2023-01-18T09:40:52.802Z,98354.34
2023-01-18T09:43:58.146Z,98342.56
2023-01-18T09:47:12.586Z,98334.22
2023-01-18T09:50:17.515Z,98324.56
2023-01-18T09:53:28.712Z,98319.69
2023-01-18T09:56:46.590Z,98328.28
2023-01-18T09:59:54.936Z,98318.09
2023-01-18T10:03:36.479Z,98325.09
2023-01-18T10:06:48.958Z,98311.38
2023-01-18T10:09:55.167Z,98306.25
2023-01-18T10:13:38.017Z,98296.59
2023-01-18T10:16:40.490Z,98287.44
2023-01-18T10:19:42.839Z,98287.69
2023-01-18T10:22:59.969Z,98283.09
2023-01-18T10:26:04.833Z,98280.97
2023-01-18T10:29:35.557Z,98265.84
2023-01-18T10:32:38.312Z,98272.81
2023-01-18T10:35:45.455Z,98263.13
2023-01-18T10:38:48.248Z,98270.09
2023-01-18T10:41:50.915Z,98269.56
2023-01-18T10:44:53.295Z,98264.41
2023-01-18T10:47:56.870Z,98275.69
2023-01-18T10:51:06.072Z,98259.84
2023-01-18T10:54:27.482Z,98269.56
2023-01-18T10:57:36.440Z,98275.78
2023-01-18T11:00:38.724Z,98281.44
2023-01-18T11:03:47.360Z,98282.53
2023-01-18T11:06:52.503Z,98287.34
2023-01-18T11:09:59.602Z,98293.88
2023-01-18T11:13:02.035Z,98300.03
2023-01-18T11:16:10.642Z,98287.16
2023-01-18T11:19:18.372Z,98301.16
2023-01-18T11:22:31.424Z,98302.50
2023-01-18T11:25:57.131Z,98304.66
2023-01-18T11:29:01.048Z,98283.72
2023-01-18T11:32:06.751Z,98280.44
2023-01-18T11:35:10.747Z,98283.09
2023-01-18T11:38:18.971Z,98273.72
2023-01-18T11:41:23.666Z,98280.16
2023-01-18T11:44:28.028Z,98268.59
2023-01-18T11:48:08.977Z,98278.28
2023-01-18T11:51:23.598Z,98265.94
2023-01-18T11:54:37.055Z,98265.91
2023-01-18T11:57:39.475Z,98271.50
2023-01-18T12:01:02.678Z,98264.53
2023-01-18T12:04:12.068Z,98255.72
2023-01-18T12:07:48.803Z,98247.94
2023-01-18T12:11:16.012Z,98247.91
2023-01-18T12:14:40.633Z,98262.97
2023-01-18T12:18:12.493Z,98267.56
2023-01-18T12:21:51.446Z,98267.00
2023-01-18T12:25:02.788Z,98264.88
2023-01-18T12:28:35.570Z,98267.53
2023-01-18T12:32:04.047Z,98254.63
2023-01-18T12:35:43.460Z,98257.06
2023-01-18T12:38:51.846Z,98255.47
2023-01-18T12:41:58.566Z,98261.38
2023-01-18T12:45:05.981Z,98249.81
2023-01-18T12:48:36.164Z,98262.44
2023-01-18T12:51:39.539Z,98261.13
2023-01-18T12:55:02.865Z,98276.72
2023-01-18T12:58:05.965Z,98276.47
2023-01-18T13:01:14.425Z,98280.78
2023-01-18T13:04:30.243Z,98284.50
2023-01-18T13:07:36.407Z,98290.69
2023-01-18T13:10:38.992Z,98293.34
2023-01-18T13:13:42.708Z,98286.84
2023-01-18T13:16:50.895Z,98297.06
2023-01-18T13:20:16.548Z,98285.28
2023-01-18T13:23:32.179Z,98300.06
2023-01-18T13:26:35.498Z,98299.78
2023-01-18T13:29:38.338Z,98306.72
2023-01-18T13:32:42.500Z,98313.63
2023-01-18T13:35:55.153Z,98321.16
2023-01-18T13:39:01.315Z,98329.53
2023-01-18T13:42:26.826Z,98327.31
2023-01-18T13:45:31.029Z,98329.69
2023-01-18T13:48:45.643Z,98338.56
2023-01-18T13:51:49.592Z,98336.47
2023-01-18T13:54:54.690Z,98333.47
2023-01-18T13:57:58.339Z,98335.84
2023-01-18T14:01:03.606Z,98333.09
2023-01-18T14:04:24.827Z,98340.97
2023-01-18T14:07:27.521Z,98360.31
2023-01-18T14:10:37.175Z,98356.81
2023-01-18T14:13:45.448Z,98355.75
2023-01-18T14:17:13.493Z,98360.88
2023-01-18T14:20:29.914Z,98358.22
2023-01-18T14:24:06.243Z,98360.31
2023-01-18T14:27:15.038Z,98361.38
2023-01-18T14:30:30.695Z,98352.84
2023-01-18T14:33:38.225Z,98357.19
2023-01-18T14:36:40.488Z,98358.78
2023-01-18T14:39:42.837Z,98362.00
2023-01-18T14:42:56.307Z,98368.16
2023-01-18T14:46:04.198Z,98370.84
2023-01-18T14:49:08.923Z,98369.00
2023-01-18T14:52:19.221Z,98373.31
2023-01-18T14:55:41.846Z,98373.06
2023-01-18T14:58:52.603Z,98373.88
2023-01-18T15:01:58.184Z,98379.72
2023-01-18T15:05:20.030Z,98376.00
2023-01-18T15:08:22.463Z,98381.34
2023-01-18T15:11:25.304Z,98389.13
2023-01-18T15:14:31.403Z,98391.03
2023-01-18T15:17:34.122Z,98389.69
2023-01-18T15:20:37.694Z,98392.66
2023-01-18T15:23:41.313Z,98401.50
2023-01-18T15:26:46.962Z,98399.13
2023-01-18T15:29:54.779Z,98391.38
2023-01-18T15:33:02.127Z,98395.66
2023-01-18T15:36:05.081Z,98398.53
2023-01-18T15:39:09.757Z,98400.44
2023-01-18T15:42:14.014Z,98398.31
2023-01-18T15:45:25.307Z,98404.25
2023-01-18T15:48:32.049Z,98399.66
2023-01-18T15:51:52.868Z,98411.78
2023-01-18T15:54:55.635Z,98410.41
2023-01-18T15:58:01.079Z,98416.59
2023-01-18T16:01:28.091Z,98414.44
2023-01-18T16:04:30.794Z,98405.03
2023-01-18T16:07:42.197Z,98416.56
2023-01-18T16:10:52.590Z,98424.38
2023-01-18T16:14:00.303Z,98421.72
2023-01-18T16:17:18.314Z,98426.28
2023-01-18T16:20:20.798Z,98426.84
2023-01-18T16:23:23.235Z,98428.97
2023-01-18T16:26:30.019Z,98433.53
2023-01-18T16:29:40.286Z,98428.72
2023-01-18T16:32:42.668Z,98430.81
2023-01-18T16:35:48.788Z,98440.56
2023-01-18T16:38:51.087Z,98456.84
2023-01-18T16:41:57.393Z,98459.31
2023-01-18T16:44:59.686Z,98459.31
2023-01-18T16:48:02.585Z,98454.97
2023-01-18T16:51:12.763Z,98455.25
2023-01-18T16:54:15.192Z,98472.75
2023-01-18T16:57:17.492Z,98466.06
2023-01-18T17:00:22.454Z,98472.16
2023-01-18T17:03:25.275Z,98472.78
2023-01-18T17:06:29.389Z,98488.88
2023-01-18T17:09:40.373Z,98484.84
2023-01-18T17:12:49.844Z,98489.66
2023-01-18T17:15:52.773Z,98501.81
2023-01-18T17:18:55.102Z,98499.13
2023-01-18T17:21:58.805Z,98497.22
2023-01-18T17:25:01.253Z,98512.28
2023-01-18T17:28:04.522Z,98521.13
2023-01-18T17:31:06.879Z,98527.31
2023-01-18T17:34:10.589Z,98516.31
2023-01-18T17:37:13.457Z,98522.00
2023-01-18T17:40:23.572Z,98529.47
2023-01-18T17:43:34.218Z,98538.34
2023-01-18T17:46:37.175Z,98538.34
2023-01-18T17:49:39.580Z,98548.53
2023-01-18T17:52:41.970Z,98550.75
2023-01-18T17:55:44.323Z,98546.94
2023-01-18T17:58:48.072Z,98554.44
2023-01-18T18:01:50.770Z,98555.75
2023-01-18T18:04:53.213Z,98561.94
2023-01-18T18:07:55.615Z,98573.78
2023-01-18T18:10:59.996Z,98572.16
2023-01-18T18:14:03.197Z,98589.88
2023-01-18T18:17:06.408Z,98597.94
2023-01-18T18:20:10.900Z,98604.13
2023-01-18T18:23:13.673Z,98602.75
2023-01-18T18:26:16.359Z,98628.09
2023-01-18T18:29:18.985Z,98624.28
2023-01-18T18:32:21.357Z,98634.41
2023-01-18T18:35:26.140Z,98633.38
2023-01-18T18:38:28.863Z,98636.00
2023-01-18T18:41:31.419Z,98646.84
2023-01-18T18:44:33.774Z,98646.09
2023-01-18T18:47:36.041Z,98650.94
2023-01-18T18:50:38.318Z,98652.25
2023-01-18T18:53:41.107Z,98662.53
2023-01-18T18:56:43.647Z,98654.44
2023-01-18T18:59:46.126Z,98667.66
2023-01-18T19:02:48.610Z,98668.44
2023-01-18T19:05:51.098Z,98668.38
2023-01-18T19:08:53.959Z,98672.59
2023-01-18T19:11:56.191Z,98673.63
2023-01-18T19:14:59.276Z,98672.50
2023-01-18T19:18:01.574Z,98678.47
2023-01-18T19:21:04.377Z,98688.28
2023-01-18T19:24:06.802Z,98699.28
2023-01-18T19:27:09.124Z,98696.00
2023-01-18T19:30:21.574Z,98710.09
2023-01-18T19:33:23.968Z,98697.72
2023-01-18T19:36:26.587Z,98709.53
2023-01-18T19:39:29.073Z,98719.22
2023-01-18T19:42:31.474Z,98732.06
2023-01-18T19:45:33.970Z,98743.88
2023-01-18T19:48:38.129Z,98755.81
2023-01-18T19:51:41.324Z,98770.66
2023-01-18T19:54:43.712Z,98777.97
2023-01-18T19:57:46.191Z,98780.03
2023-01-18T20:00:48.542Z,98787.47
2023-01-18T20:03:50.922Z,98791.06
2023-01-18T20:06:53.324Z,98807.84
2023-01-18T20:09:55.712Z,98797.63
2023-01-18T20:12:59.333Z,98818.53
2023-01-18T20:16:01.847Z,98829.88
2023-01-18T20:19:04.923Z,98841.22
2023-01-18T20:22:07.214Z,98837.66
2023-01-18T20:25:11.372Z,98832.94
2023-01-18T20:28:13.802Z,98838.38
2023-01-18T20:31:16.237Z,98845.97
2023-01-18T20:34:18.628Z,98861.78
2023-01-18T20:37:22.165Z,98877.31
2023-01-18T20:40:24.695Z,98869.03
2023-01-18T20:43:27.179Z,98883.53
2023-01-18T20:46:29.643Z,98888.09
2023-01-18T20:49:39.345Z,98884.34
2023-01-18T20:52:42.020Z,98896.31
2023-01-18T20:55:44.397Z,98891.19
2023-01-18T20:58:46.743Z,98900.59
2023-01-18T21:01:49.197Z,98902.25
2023-01-18T21:04:51.541Z,98909.88
2023-01-18T21:07:54.391Z,98915.16
2023-01-18T21:10:56.696Z,98921.06
2023-01-18T21:13:59.409Z,98916.78
2023-01-18T21:17:01.760Z,98931.84
2023-01-18T21:20:04.674Z,98924.78
2023-01-18T21:23:07.011Z,98931.78
2023-01-18T21:26:12.133Z,98939.41
2023-01-18T21:29:14.488Z,98942.69
2023-01-18T21:32:16.799Z,98948.03
2023-01-18T21:35:19.166Z,98956.50
2023-01-18T21:38:27.208Z,98969.09
2023-01-18T21:41:48.412Z,98975.22
2023-01-18T21:45:09.323Z,98969.78
2023-01-18T21:48:11.635Z,98978.38
2023-01-18T21:51:32.857Z,98977.81
2023-01-18T21:54:35.111Z,98993.25
2023-01-18T21:57:38.772Z,99003.59
2023-01-18T22:00:41.293Z,99007.41
2023-01-18T22:04:03.520Z,99014.22
2023-01-18T22:07:05.761Z,99010.31
2023-01-18T22:10:08.483Z,99019.16
2023-01-18T22:13:10.735Z,99020.41
2023-01-18T22:16:13.021Z,99018.53
2023-01-18T22:19:15.566Z,99024.63
2023-01-18T22:22:17.879Z,99043.50
2023-01-18T22:25:20.168Z,99044.63
2023-01-18T22:28:22.789Z,99045.75
2023-01-18T22:31:25.695Z,99057.16
2023-01-18T22:34:28.349Z,99065.69
2023-01-18T22:37:31.329Z,99082.38
2023-01-18T22:40:33.834Z,99093.75
2023-01-18T22:43:36.540Z,99083.25
2023-01-18T22:46:38.849Z,99087.25
2023-01-18T22:49:41.306Z,99102.38
2023-01-18T22:52:43.705Z,99115.22
2023-01-18T22:55:46.042Z,99112.09
2023-01-18T22:58:49.147Z,99093.59
2023-01-18T23:01:51.429Z,99104.41
2023-01-18T23:04:54.531Z,99104.03
2023-01-18T23:07:56.873Z,99104.19
2023-01-18T23:10:59.201Z,99106.25
2023-01-18T23:14:20.231Z,99101.69
2023-01-18T23:17:40.754Z,99091.25
2023-01-18T23:20:43.011Z,99097.41
2023-01-18T23:23:45.352Z,99099.72
2023-01-18T23:26:47.924Z,99106.84
2023-01-18T23:29:56.645Z,99112.41
2023-01-18T23:32:59.671Z,99118.38
2023-01-18T23:36:02.022Z,99119.09
2023-01-18T23:39:23.646Z,99121.06
2023-01-18T23:42:44.400Z,99120.03
2023-01-18T23:46:05.680Z,99150.25
2023-01-18T23:49:26.702Z,99157.47
2023-01-18T23:52:47.839Z,99167.34
2023-01-18T23:55:53.467Z,99176.47
2023-01-18T23:58:56.647Z,99185.91
